sensor_id;sensor_type;location;lat;lon;timestamp;pressure;altitude;pressure_sealevel;temperature
19196;BMP280;9730;48.926;11.376;2022-08-03T00:00:56;97399.16;;;15.79
19196;BMP280;9730;48.926;11.376;2022-08-03T00:03:22;97400.44;;;15.97
19196;BMP280;9730;48.926;11.376;2022-08-03T00:05:49;97395.94;;;16.13
19196;BMP280;9730;48.926;11.376;2022-08-03T00:08:17;97388.19;;;16.14
19196;BMP280;9730;48.926;11.376;2022-08-03T00:10:43;97384.41;;;16.32
19196;BMP280;9730;48.926;11.376;2022-08-03T00:13:10;97386.50;;;16.38
19196;BMP280;9730;48.926;11.376;2022-08-03T00:15:38;97382.25;;;16.26
19196;BMP280;9730;48.926;11.376;2022-08-03T00:18:05;97387.25;;;16.15
19196;BMP280;9730;48.926;11.376;2022-08-03T00:20:32;97389.59;;;15.83
19196;BMP280;9730;48.926;11.376;2022-08-03T00:22:58;97387.84;;;15.83
19196;BMP280;9730;48.926;11.376;2022-08-03T00:25:27;97392.31;;;15.92
19196;BMP280;9730;48.926;11.376;2022-08-03T00:27:53;97388.19;;;15.66
19196;BMP280;9730;48.926;11.376;2022-08-03T00:30:20;97392.97;;;15.46
19196;BMP280;9730;48.926;11.376;2022-08-03T00:32:47;97391.44;;;15.56
19196;BMP280;9730;48.926;11.376;2022-08-03T00:35:13;97385.22;;;15.72
19196;BMP280;9730;48.926;11.376;2022-08-03T00:37:40;97391.72;;;15.89
19196;BMP280;9730;48.926;11.376;2022-08-03T00:40:08;97393.13;;;15.93
19196;BMP280;9730;48.926;11.376;2022-08-03T00:42:45;97389.88;;;15.78
19196;BMP280;9730;48.926;11.376;2022-08-03T00:45:11;97385.81;;;15.88
19196;BMP280;9730;48.926;11.376;2022-08-03T00:47:38;97390.94;;;15.76
19196;BMP280;9730;48.926;11.376;2022-08-03T00:50:05;97392.16;;;15.70
19196;BMP280;9730;48.926;11.376;2022-08-03T00:52:33;97397.38;;;15.44
19196;BMP280;9730;48.926;11.376;2022-08-03T00:55:00;97385.97;;;15.49
19196;BMP280;9730;48.926;11.376;2022-08-03T00:57:27;97395.63;;;15.20
19196;BMP280;9730;48.926;11.376;2022-08-03T00:59:56;97395.63;;;15.32
19196;BMP280;9730;48.926;11.376;2022-08-03T01:02:24;97398.28;;;15.31
19196;BMP280;9730;48.926;11.376;2022-08-03T01:04:50;97398.88;;;15.34
19196;BMP280;9730;48.926;11.376;2022-08-03T01:07:23;97390.75;;;15.29
19196;BMP280;9730;48.926;11.376;2022-08-03T01:09:59;97403.31;;;15.18
19196;BMP280;9730;48.926;11.376;2022-08-03T01:12:31;97391.94;;;15.11
19196;BMP280;9730;48.926;11.376;2022-08-03T01:15:06;97396.00;;;15.01
19196;BMP280;9730;48.926;11.376;2022-08-03T01:17:39;97384.31;;;14.99
19196;BMP280;9730;48.926;11.376;2022-08-03T01:20:12;97396.75;;;14.77
19196;BMP280;9730;48.926;11.376;2022-08-03T01:25:49;97391.69;;;14.89
19196;BMP280;9730;48.926;11.376;2022-08-03T01:28:46;97387.25;;;14.93
19196;BMP280;9730;48.926;11.376;2022-08-03T01:31:21;97393.13;;;14.93
19196;BMP280;9730;48.926;11.376;2022-08-03T01:33:53;97399.03;;;15.06
19196;BMP280;9730;48.926;11.376;2022-08-03T01:36:23;97386.63;;;14.89
19196;BMP280;9730;48.926;11.376;2022-08-03T01:38:53;97394.50;;;14.73
19196;BMP280;9730;48.926;11.376;2022-08-03T01:41:23;97388.44;;;14.88
19196;BMP280;9730;48.926;11.376;2022-08-03T01:43:52;97393.94;;;14.94
19196;BMP280;9730;48.926;11.376;2022-08-03T01:46:22;97386.63;;;15.02
19196;BMP280;9730;48.926;11.376;2022-08-03T01:48:50;97382.19;;;15.05
19196;BMP280;9730;48.926;11.376;2022-08-03T01:51:19;97384.41;;;15.10
19196;BMP280;9730;48.926;11.376;2022-08-03T01:53:47;97382.09;;;15.07
19196;BMP280;9730;48.926;11.376;2022-08-03T01:56:16;97380.81;;;14.36
19196;BMP280;9730;48.926;11.376;2022-08-03T01:58:44;97383.16;;;14.39
19196;BMP280;9730;48.926;11.376;2022-08-03T02:01:12;97384.00;;;14.52
19196;BMP280;9730;48.926;11.376;2022-08-03T02:03:42;97386.16;;;14.58
19196;BMP280;9730;48.926;11.376;2022-08-03T02:06:11;97391.06;;;14.74
19196;BMP280;9730;48.926;11.376;2022-08-03T02:08:39;97386.56;;;14.65
19196;BMP280;9730;48.926;11.376;2022-08-03T02:11:07;97393.38;;;14.64
19196;BMP280;9730;48.926;11.376;2022-08-03T02:13:34;97385.75;;;14.64
19196;BMP280;9730;48.926;11.376;2022-08-03T02:16:02;97385.47;;;14.42
19196;BMP280;9730;48.926;11.376;2022-08-03T02:18:29;97390.00;;;14.11
19196;BMP280;9730;48.926;11.376;2022-08-03T02:20:59;97389.31;;;14.35
19196;BMP280;9730;48.926;11.376;2022-08-03T02:23:26;97383.19;;;14.26
19196;BMP280;9730;48.926;11.376;2022-08-03T02:25:57;97396.94;;;13.81
19196;BMP280;9730;48.926;11.376;2022-08-03T02:28:28;97394.31;;;13.83
19196;BMP280;9730;48.926;11.376;2022-08-03T02:30:57;97395.31;;;13.67
19196;BMP280;9730;48.926;11.376;2022-08-03T02:33:28;97393.38;;;13.98
19196;BMP280;9730;48.926;11.376;2022-08-03T02:35:56;97386.97;;;14.06
19196;BMP280;9730;48.926;11.376;2022-08-03T02:38:27;97383.03;;;14.15
19196;BMP280;9730;48.926;11.376;2022-08-03T02:40:55;97387.38;;;14.13
19196;BMP280;9730;48.926;11.376;2022-08-03T02:43:23;97384.91;;;14.25
19196;BMP280;9730;48.926;11.376;2022-08-03T02:45:51;97384.94;;;14.37
19196;BMP280;9730;48.926;11.376;2022-08-03T02:48:21;97384.28;;;14.22
19196;BMP280;9730;48.926;11.376;2022-08-03T02:50:51;97380.56;;;14.27
19196;BMP280;9730;48.926;11.376;2022-08-03T02:53:18;97385.94;;;14.23
19196;BMP280;9730;48.926;11.376;2022-08-03T02:55:47;97380.38;;;14.30
19196;BMP280;9730;48.926;11.376;2022-08-03T02:58:16;97391.66;;;13.84
19196;BMP280;9730;48.926;11.376;2022-08-03T03:00:44;97393.50;;;13.55
19196;BMP280;9730;48.926;11.376;2022-08-03T03:03:11;97391.97;;;13.66
19196;BMP280;9730;48.926;11.376;2022-08-03T03:05:39;97396.09;;;13.81
19196;BMP280;9730;48.926;11.376;2022-08-03T03:08:06;97396.25;;;13.92
19196;BMP280;9730;48.926;11.376;2022-08-03T03:10:32;97397.13;;;13.79
19196;BMP280;9730;48.926;11.376;2022-08-03T03:13:01;97391.41;;;13.75
19196;BMP280;9730;48.926;11.376;2022-08-03T03:15:28;97397.66;;;13.70
19196;BMP280;9730;48.926;11.376;2022-08-03T03:17:55;97388.69;;;13.78
19196;BMP280;9730;48.926;11.376;2022-08-03T03:20:22;97392.66;;;13.82
19196;BMP280;9730;48.926;11.376;2022-08-03T03:22:49;97395.28;;;13.80
19196;BMP280;9730;48.926;11.376;2022-08-03T03:25:17;97404.44;;;13.83
19196;BMP280;9730;48.926;11.376;2022-08-03T03:27:46;97403.63;;;13.82
19196;BMP280;9730;48.926;11.376;2022-08-03T03:30:14;97404.97;;;13.74
19196;BMP280;9730;48.926;11.376;2022-08-03T03:32:41;97403.91;;;13.64
19196;BMP280;9730;48.926;11.376;2022-08-03T03:35:08;97410.88;;;13.75
19196;BMP280;9730;48.926;11.376;2022-08-03T03:37:35;97403.53;;;13.84
19196;BMP280;9730;48.926;11.376;2022-08-03T03:40:02;97397.34;;;13.88
19196;BMP280;9730;48.926;11.376;2022-08-03T03:42:28;97407.63;;;13.45
19196;BMP280;9730;48.926;11.376;2022-08-03T03:44:55;97412.84;;;13.28
19196;BMP280;9730;48.926;11.376;2022-08-03T03:47:23;97412.28;;;13.23
19196;BMP280;9730;48.926;11.376;2022-08-03T03:49:49;97411.22;;;13.41
19196;BMP280;9730;48.926;11.376;2022-08-03T03:52:16;97418.91;;;13.39
19196;BMP280;9730;48.926;11.376;2022-08-03T03:54:44;97409.53;;;13.55
19196;BMP280;9730;48.926;11.376;2022-08-03T03:57:10;97412.06;;;13.41
19196;BMP280;9730;48.926;11.376;2022-08-03T03:59:37;97411.88;;;13.44
19196;BMP280;9730;48.926;11.376;2022-08-03T04:02:05;97404.09;;;13.47
19196;BMP280;9730;48.926;11.376;2022-08-03T04:04:32;97407.63;;;13.45
19196;BMP280;9730;48.926;11.376;2022-08-03T04:07:17;97407.88;;;13.27
19196;BMP280;9730;48.926;11.376;2022-08-03T04:10:02;97412.34;;;13.08
19196;BMP280;9730;48.926;11.376;2022-08-03T04:12:49;97417.16;;;13.12
19196;BMP280;9730;48.926;11.376;2022-08-03T04:15:18;97416.19;;;13.42
19196;BMP280;9730;48.926;11.376;2022-08-03T04:17:46;97421.09;;;13.31
19196;BMP280;9730;48.926;11.376;2022-08-03T04:20:17;97415.31;;;13.43
19196;BMP280;9730;48.926;11.376;2022-08-03T04:22:46;97423.72;;;13.44
19196;BMP280;9730;48.926;11.376;2022-08-03T04:25:15;97428.16;;;13.40
19196;BMP280;9730;48.926;11.376;2022-08-03T04:27:43;97430.31;;;13.46
19196;BMP280;9730;48.926;11.376;2022-08-03T04:30:12;97434.59;;;13.60
19196;BMP280;9730;48.926;11.376;2022-08-03T04:32:39;97428.06;;;13.70
19196;BMP280;9730;48.926;11.376;2022-08-03T04:35:09;97427.16;;;13.71
19196;BMP280;9730;48.926;11.376;2022-08-03T04:37:38;97426.34;;;13.56
19196;BMP280;9730;48.926;11.376;2022-08-03T04:40:10;97427.00;;;13.60
19196;BMP280;9730;48.926;11.376;2022-08-03T04:42:39;97430.06;;;13.51
19196;BMP280;9730;48.926;11.376;2022-08-03T04:45:07;97428.53;;;13.62
19196;BMP280;9730;48.926;11.376;2022-08-03T04:47:36;97435.50;;;13.59
19196;BMP280;9730;48.926;11.376;2022-08-03T04:50:05;97434.13;;;13.39
19196;BMP280;9730;48.926;11.376;2022-08-03T04:52:33;97438.00;;;13.45
19196;BMP280;9730;48.926;11.376;2022-08-03T04:55:01;97446.63;;;13.56
19196;BMP280;9730;48.926;11.376;2022-08-03T04:57:27;97444.91;;;13.71
19196;BMP280;9730;48.926;11.376;2022-08-03T04:59:54;97447.72;;;13.52
19196;BMP280;9730;48.926;11.376;2022-08-03T05:02:21;97446.19;;;13.78
19196;BMP280;9730;48.926;11.376;2022-08-03T05:04:48;97448.16;;;13.73
19196;BMP280;9730;48.926;11.376;2022-08-03T05:07:15;97448.72;;;13.91
19196;BMP280;9730;48.926;11.376;2022-08-03T05:09:43;97441.91;;;13.92
19196;BMP280;9730;48.926;11.376;2022-08-03T05:12:11;97444.81;;;13.86
19196;BMP280;9730;48.926;11.376;2022-08-03T05:14:38;97450.25;;;14.08
19196;BMP280;9730;48.926;11.376;2022-08-03T05:17:05;97459.50;;;13.95
19196;BMP280;9730;48.926;11.376;2022-08-03T05:19:31;97458.59;;;14.10
19196;BMP280;9730;48.926;11.376;2022-08-03T05:21:58;97451.03;;;14.22
19196;BMP280;9730;48.926;11.376;2022-08-03T05:24:25;97453.22;;;14.28
19196;BMP280;9730;48.926;11.376;2022-08-03T05:26:51;97457.81;;;14.35
19196;BMP280;9730;48.926;11.376;2022-08-03T05:29:19;97450.38;;;14.46
19196;BMP280;9730;48.926;11.376;2022-08-03T05:31:45;97446.34;;;14.56
19196;BMP280;9730;48.926;11.376;2022-08-03T05:34:12;97446.69;;;14.64
19196;BMP280;9730;48.926;11.376;2022-08-03T05:36:38;97446.97;;;14.86
19196;BMP280;9730;48.926;11.376;2022-08-03T05:39:05;97446.50;;;15.18
19196;BMP280;9730;48.926;11.376;2022-08-03T05:41:31;97443.00;;;15.21
19196;BMP280;9730;48.926;11.376;2022-08-03T05:43:58;97445.44;;;15.35
19196;BMP280;9730;48.926;11.376;2022-08-03T05:46:27;97446.88;;;15.39
19196;BMP280;9730;48.926;11.376;2022-08-03T05:48:53;97441.38;;;15.44
19196;BMP280;9730;48.926;11.376;2022-08-03T05:51:20;97439.34;;;15.49
19196;BMP280;9730;48.926;11.376;2022-08-03T05:53:46;97446.66;;;15.54
19196;BMP280;9730;48.926;11.376;2022-08-03T05:56:13;97444.72;;;15.57
19196;BMP280;9730;48.926;11.376;2022-08-03T05:58:39;97437.41;;;15.65
19196;BMP280;9730;48.926;11.376;2022-08-03T06:01:06;97435.97;;;15.61
19196;BMP280;9730;48.926;11.376;2022-08-03T06:03:34;97438.31;;;15.52
19196;BMP280;9730;48.926;11.376;2022-08-03T06:06:00;97447.56;;;15.65
19196;BMP280;9730;48.926;11.376;2022-08-03T06:08:26;97444.00;;;15.80
19196;BMP280;9730;48.926;11.376;2022-08-03T06:10:53;97435.84;;;15.88
19196;BMP280;9730;48.926;11.376;2022-08-03T06:13:20;97431.19;;;16.65
19196;BMP280;9730;48.926;11.376;2022-08-03T06:15:46;97431.78;;;16.69
19196;BMP280;9730;48.926;11.376;2022-08-03T06:18:12;97433.44;;;17.60
19196;BMP280;9730;48.926;11.376;2022-08-03T06:20:40;97422.31;;;18.68
19196;BMP280;9730;48.926;11.376;2022-08-03T06:23:07;97410.16;;;21.18
19196;BMP280;9730;48.926;11.376;2022-08-03T06:25:33;97389.59;;;23.14
19196;BMP280;9730;48.926;11.376;2022-08-03T06:28:00;97388.06;;;24.86
19196;BMP280;9730;48.926;11.376;2022-08-03T06:30:28;97387.63;;;26.00
19196;BMP280;9730;48.926;11.376;2022-08-03T06:32:54;97380.16;;;26.65
19196;BMP280;9730;48.926;11.376;2022-08-03T06:35:21;97379.00;;;25.53
19196;BMP280;9730;48.926;11.376;2022-08-03T06:37:50;97389.69;;;24.30
19196;BMP280;9730;48.926;11.376;2022-08-03T06:40:18;97386.09;;;24.48
19196;BMP280;9730;48.926;11.376;2022-08-03T06:42:45;97395.78;;;24.70
19196;BMP280;9730;48.926;11.376;2022-08-03T06:45:11;97350.81;;;27.54
19196;BMP280;9730;48.926;11.376;2022-08-03T06:47:39;97372.63;;;26.56
19196;BMP280;9730;48.926;11.376;2022-08-03T06:50:07;97362.47;;;27.50
19196;BMP280;9730;48.926;11.376;2022-08-03T06:52:35;97361.31;;;27.52
19196;BMP280;9730;48.926;11.376;2022-08-03T06:55:04;97374.97;;;26.95
19196;BMP280;9730;48.926;11.376;2022-08-03T06:57:31;97364.16;;;27.29
19196;BMP280;9730;48.926;11.376;2022-08-03T06:59:57;97369.50;;;27.27
19196;BMP280;9730;48.926;11.376;2022-08-03T07:02:26;97362.00;;;28.33
19196;BMP280;9730;48.926;11.376;2022-08-03T07:04:52;97370.16;;;28.01
19196;BMP280;9730;48.926;11.376;2022-08-03T07:07:19;97357.25;;;29.19
19196;BMP280;9730;48.926;11.376;2022-08-03T07:09:45;97359.28;;;28.97
19196;BMP280;9730;48.926;11.376;2022-08-03T07:12:14;97359.66;;;29.75
19196;BMP280;9730;48.926;11.376;2022-08-03T07:14:41;97358.69;;;29.76
19196;BMP280;9730;48.926;11.376;2022-08-03T07:17:07;97351.34;;;29.52
19196;BMP280;9730;48.926;11.376;2022-08-03T07:19:33;97333.09;;;30.92
19196;BMP280;9730;48.926;11.376;2022-08-03T07:22:00;97346.13;;;30.26
19196;BMP280;9730;48.926;11.376;2022-08-03T07:24:27;97329.25;;;32.16
19196;BMP280;9730;48.926;11.376;2022-08-03T07:26:54;97327.34;;;32.35
19196;BMP280;9730;48.926;11.376;2022-08-03T07:29:21;97325.06;;;32.52
19196;BMP280;9730;48.926;11.376;2022-08-03T07:31:48;97323.25;;;32.83
19196;BMP280;9730;48.926;11.376;2022-08-03T07:34:14;97326.97;;;32.32
19196;BMP280;9730;48.926;11.376;2022-08-03T07:36:41;97332.59;;;32.29
19196;BMP280;9730;48.926;11.376;2022-08-03T07:39:07;97326.88;;;32.08
19196;BMP280;9730;48.926;11.376;2022-08-03T07:41:34;97327.13;;;31.93
19196;BMP280;9730;48.926;11.376;2022-08-03T07:44:01;97327.75;;;33.00
19196;BMP280;9730;48.926;11.376;2022-08-03T07:46:29;97324.63;;;32.18
19196;BMP280;9730;48.926;11.376;2022-08-03T07:48:55;97324.03;;;33.74
19196;BMP280;9730;48.926;11.376;2022-08-03T07:51:22;97325.25;;;33.72
19196;BMP280;9730;48.926;11.376;2022-08-03T07:53:48;97323.97;;;33.63
19196;BMP280;9730;48.926;11.376;2022-08-03T07:56:15;97307.53;;;35.43
19196;BMP280;9730;48.926;11.376;2022-08-03T07:58:42;97306.81;;;35.24
19196;BMP280;9730;48.926;11.376;2022-08-03T08:01:08;97320.00;;;34.25
19196;BMP280;9730;48.926;11.376;2022-08-03T08:03:36;97307.31;;;34.40
19196;BMP280;9730;48.926;11.376;2022-08-03T08:06:03;97304.00;;;35.03
19196;BMP280;9730;48.926;11.376;2022-08-03T08:08:29;97325.16;;;33.00
19196;BMP280;9730;48.926;11.376;2022-08-03T08:10:56;97318.38;;;33.17
19196;BMP280;9730;48.926;11.376;2022-08-03T08:13:23;97308.56;;;33.73
19196;BMP280;9730;48.926;11.376;2022-08-03T08:15:49;97292.69;;;35.02
19196;BMP280;9730;48.926;11.376;2022-08-03T08:18:17;97287.22;;;36.39
19196;BMP280;9730;48.926;11.376;2022-08-03T08:20:45;97283.88;;;37.58
19196;BMP280;9730;48.926;11.376;2022-08-03T08:23:11;97275.38;;;38.15
19196;BMP280;9730;48.926;11.376;2022-08-03T08:25:38;97289.19;;;37.09
19196;BMP280;9730;48.926;11.376;2022-08-03T08:28:04;97299.56;;;34.63
19196;BMP280;9730;48.926;11.376;2022-08-03T08:30:32;97282.16;;;36.21
19196;BMP280;9730;48.926;11.376;2022-08-03T08:32:58;97278.66;;;38.27
19196;BMP280;9730;48.926;11.376;2022-08-03T08:35:25;97268.47;;;39.34
19196;BMP280;9730;48.926;11.376;2022-08-03T08:37:53;97283.97;;;38.32
19196;BMP280;9730;48.926;11.376;2022-08-03T08:40:20;97276.91;;;39.26
19196;BMP280;9730;48.926;11.376;2022-08-03T08:42:48;97279.03;;;38.14
19196;BMP280;9730;48.926;11.376;2022-08-03T08:45:14;97306.44;;;33.63
19196;BMP280;9730;48.926;11.376;2022-08-03T08:47:45;97289.19;;;35.20
19196;BMP280;9730;48.926;11.376;2022-08-03T08:50:13;97292.91;;;36.48
19196;BMP280;9730;48.926;11.376;2022-08-03T08:52:40;97285.34;;;36.51
19196;BMP280;9730;48.926;11.376;2022-08-03T08:55:11;97289.63;;;35.40
19196;BMP280;9730;48.926;11.376;2022-08-03T08:57:44;97267.19;;;38.64
19196;BMP280;9730;48.926;11.376;2022-08-03T09:00:13;97271.94;;;38.93
19196;BMP280;9730;48.926;11.376;2022-08-03T09:02:41;97272.28;;;38.49
19196;BMP280;9730;48.926;11.376;2022-08-03T09:05:09;97287.69;;;37.13
19196;BMP280;9730;48.926;11.376;2022-08-03T09:07:37;97264.91;;;39.50
19196;BMP280;9730;48.926;11.376;2022-08-03T09:10:05;97286.66;;;37.30
19196;BMP280;9730;48.926;11.376;2022-08-03T09:12:37;97296.06;;;34.69
19196;BMP280;9730;48.926;11.376;2022-08-03T09:15:22;97278.84;;;37.57
19196;BMP280;9730;48.926;11.376;2022-08-03T09:17:50;97278.06;;;36.14
19196;BMP280;9730;48.926;11.376;2022-08-03T09:20:18;97255.50;;;38.50
19196;BMP280;9730;48.926;11.376;2022-08-03T09:22:50;97271.03;;;40.21
19196;BMP280;9730;48.926;11.376;2022-08-03T09:25:16;97281.44;;;37.19
19196;BMP280;9730;48.926;11.376;2022-08-03T09:27:45;97257.22;;;39.02
19196;BMP280;9730;48.926;11.376;2022-08-03T09:30:13;97265.97;;;40.20
19196;BMP280;9730;48.926;11.376;2022-08-03T09:32:40;97255.44;;;40.25
19196;BMP280;9730;48.926;11.376;2022-08-03T09:35:09;97262.84;;;38.85
19196;BMP280;9730;48.926;11.376;2022-08-03T09:37:36;97270.44;;;38.76
19196;BMP280;9730;48.926;11.376;2022-08-03T09:40:04;97264.47;;;40.73
19196;BMP280;9730;48.926;11.376;2022-08-03T09:42:31;97279.19;;;37.22
19196;BMP280;9730;48.926;11.376;2022-08-03T09:45:00;97266.41;;;38.95
19196;BMP280;9730;48.926;11.376;2022-08-03T09:47:28;97292.59;;;34.28
19196;BMP280;9730;48.926;11.376;2022-08-03T09:49:58;97269.31;;;36.36
19196;BMP280;9730;48.926;11.376;2022-08-03T09:52:29;97284.19;;;33.61
19196;BMP280;9730;48.926;11.376;2022-08-03T09:54:58;97255.19;;;37.99
19196;BMP280;9730;48.926;11.376;2022-08-03T09:57:26;97267.38;;;37.09
19196;BMP280;9730;48.926;11.376;2022-08-03T09:59:53;97264.31;;;36.35
19196;BMP280;9730;48.926;11.376;2022-08-03T10:02:39;97249.22;;;38.61
19196;BMP280;9730;48.926;11.376;2022-08-03T10:05:08;97241.00;;;39.76
19196;BMP280;9730;48.926;11.376;2022-08-03T10:07:43;97245.66;;;40.25
19196;BMP280;9730;48.926;11.376;2022-08-03T10:10:10;97232.00;;;41.85
19196;BMP280;9730;48.926;11.376;2022-08-03T10:12:37;97226.38;;;41.92
19196;BMP280;9730;48.926;11.376;2022-08-03T10:15:06;97238.03;;;40.88
19196;BMP280;9730;48.926;11.376;2022-08-03T10:17:33;97233.25;;;40.36
19196;BMP280;9730;48.926;11.376;2022-08-03T10:20:02;97239.53;;;37.88
19196;BMP280;9730;48.926;11.376;2022-08-03T10:22:32;97251.56;;;36.43
19196;BMP280;9730;48.926;11.376;2022-08-03T10:25:02;97260.03;;;35.90
19196;BMP280;9730;48.926;11.376;2022-08-03T10:27:31;97248.19;;;36.15
19196;BMP280;9730;48.926;11.376;2022-08-03T10:30:00;97232.09;;;37.05
19196;BMP280;9730;48.926;11.376;2022-08-03T10:32:30;97228.28;;;38.76
19196;BMP280;9730;48.926;11.376;2022-08-03T10:35:03;97232.69;;;37.44
19196;BMP280;9730;48.926;11.376;2022-08-03T10:37:33;97222.81;;;38.51
19196;BMP280;9730;48.926;11.376;2022-08-03T10:40:01;97227.16;;;37.46
19196;BMP280;9730;48.926;11.376;2022-08-03T10:42:29;97245.31;;;34.93
19196;BMP280;9730;48.926;11.376;2022-08-03T10:45:04;97222.63;;;36.87
19196;BMP280;9730;48.926;11.376;2022-08-03T10:47:31;97222.03;;;35.81
19196;BMP280;9730;48.926;11.376;2022-08-03T10:49:58;97217.28;;;38.22
19196;BMP280;9730;48.926;11.376;2022-08-03T10:52:27;97226.31;;;35.70
19196;BMP280;9730;48.926;11.376;2022-08-03T10:54:53;97229.72;;;36.26
19196;BMP280;9730;48.926;11.376;2022-08-03T10:57:41;97223.41;;;35.44
19196;BMP280;9730;48.926;11.376;2022-08-03T11:00:09;97217.84;;;37.01
19196;BMP280;9730;48.926;11.376;2022-08-03T11:05:24;97215.78;;;36.70
19196;BMP280;9730;48.926;11.376;2022-08-03T11:08:24;97211.59;;;35.69
19196;BMP280;9730;48.926;11.376;2022-08-03T11:10:53;97219.00;;;34.88
19196;BMP280;9730;48.926;11.376;2022-08-03T11:13:22;97204.00;;;36.89
19196;BMP280;9730;48.926;11.376;2022-08-03T11:15:51;97211.56;;;35.81
19196;BMP280;9730;48.926;11.376;2022-08-03T11:18:18;97214.53;;;35.84
19196;BMP280;9730;48.926;11.376;2022-08-03T11:20:49;97220.50;;;33.55
19196;BMP280;9730;48.926;11.376;2022-08-03T11:23:41;97204.06;;;35.73
19196;BMP280;9730;48.926;11.376;2022-08-03T11:26:12;97202.38;;;35.67
19196;BMP280;9730;48.926;11.376;2022-08-03T11:28:40;97199.03;;;35.32
19196;BMP280;9730;48.926;11.376;2022-08-03T11:34:02;97185.28;;;37.02
19196;BMP280;9730;48.926;11.376;2022-08-03T11:36:29;97196.41;;;35.32
19196;BMP280;9730;48.926;11.376;2022-08-03T11:39:12;97193.59;;;36.17
19196;BMP280;9730;48.926;11.376;2022-08-03T11:41:39;97184.06;;;35.83
19196;BMP280;9730;48.926;11.376;2022-08-03T11:44:05;97180.06;;;36.85
19196;BMP280;9730;48.926;11.376;2022-08-03T11:46:35;97178.06;;;36.92
19196;BMP280;9730;48.926;11.376;2022-08-03T11:49:05;97179.56;;;36.56
19196;BMP280;9730;48.926;11.376;2022-08-03T11:51:32;97166.69;;;36.54
19196;BMP280;9730;48.926;11.376;2022-08-03T11:54:00;97168.47;;;37.03
19196;BMP280;9730;48.926;11.376;2022-08-03T11:56:42;97173.44;;;35.11
19196;BMP280;9730;48.926;11.376;2022-08-03T11:59:09;97171.06;;;34.64
19196;BMP280;9730;48.926;11.376;2022-08-03T12:01:36;97187.47;;;33.07
19196;BMP280;9730;48.926;11.376;2022-08-03T12:04:04;97161.94;;;34.78
19196;BMP280;9730;48.926;11.376;2022-08-03T12:06:30;97166.50;;;34.94
19196;BMP280;9730;48.926;11.376;2022-08-03T12:09:17;97158.69;;;35.33
19196;BMP280;9730;48.926;11.376;2022-08-03T12:11:48;97162.00;;;35.40
19196;BMP280;9730;48.926;11.376;2022-08-03T12:14:15;97170.66;;;33.97
19196;BMP280;9730;48.926;11.376;2022-08-03T12:16:45;97157.91;;;34.42
19196;BMP280;9730;48.926;11.376;2022-08-03T12:19:12;97161.56;;;35.20
19196;BMP280;9730;48.926;11.376;2022-08-03T12:21:45;97159.88;;;35.54
19196;BMP280;9730;48.926;11.376;2022-08-03T12:24:11;97169.91;;;34.72
19196;BMP280;9730;48.926;11.376;2022-08-03T12:26:42;97164.41;;;34.85
19196;BMP280;9730;48.926;11.376;2022-08-03T12:29:16;97165.56;;;34.89
19196;BMP280;9730;48.926;11.376;2022-08-03T12:31:43;97155.19;;;33.67
19196;BMP280;9730;48.926;11.376;2022-08-03T12:34:10;97149.66;;;33.75
19196;BMP280;9730;48.926;11.376;2022-08-03T12:36:49;97142.13;;;33.67
19196;BMP280;9730;48.926;11.376;2022-08-03T12:39:16;97145.09;;;33.34
19196;BMP280;9730;48.926;11.376;2022-08-03T12:41:42;97135.88;;;33.97
19196;BMP280;9730;48.926;11.376;2022-08-03T12:44:09;97133.91;;;33.92
19196;BMP280;9730;48.926;11.376;2022-08-03T12:46:38;97139.63;;;33.72
19196;BMP280;9730;48.926;11.376;2022-08-03T12:49:06;97144.03;;;33.60
19196;BMP280;9730;48.926;11.376;2022-08-03T12:51:35;97135.66;;;33.98
19196;BMP280;9730;48.926;11.376;2022-08-03T12:54:03;97133.50;;;34.07
19196;BMP280;9730;48.926;11.376;2022-08-03T12:56:29;97142.44;;;33.59
19196;BMP280;9730;48.926;11.376;2022-08-03T12:58:56;97147.16;;;33.33
19196;BMP280;9730;48.926;11.376;2022-08-03T13:01:22;97146.25;;;32.43
19196;BMP280;9730;48.926;11.376;2022-08-03T13:03:53;97137.88;;;32.34
19196;BMP280;9730;48.926;11.376;2022-08-03T13:06:21;97127.69;;;32.93
19196;BMP280;9730;48.926;11.376;2022-08-03T13:08:48;97125.63;;;33.01
19196;BMP280;9730;48.926;11.376;2022-08-03T13:11:20;97129.50;;;33.46
19196;BMP280;9730;48.926;11.376;2022-08-03T13:13:48;97131.56;;;33.73
19196;BMP280;9730;48.926;11.376;2022-08-03T13:16:14;97123.28;;;34.17
19196;BMP280;9730;48.926;11.376;2022-08-03T13:18:41;97121.69;;;34.16
19196;BMP280;9730;48.926;11.376;2022-08-03T13:21:10;97131.91;;;34.17
19196;BMP280;9730;48.926;11.376;2022-08-03T13:23:36;97124.63;;;33.79
19196;BMP280;9730;48.926;11.376;2022-08-03T13:26:03;97143.66;;;32.67
19196;BMP280;9730;48.926;11.376;2022-08-03T13:28:29;97137.53;;;32.97
19196;BMP280;9730;48.926;11.376;2022-08-03T13:30:56;97132.97;;;32.51
19196;BMP280;9730;48.926;11.376;2022-08-03T13:33:22;97126.22;;;33.03
19196;BMP280;9730;48.926;11.376;2022-08-03T13:35:49;97116.66;;;33.44
19196;BMP280;9730;48.926;11.376;2022-08-03T13:38:16;97128.50;;;32.93
19196;BMP280;9730;48.926;11.376;2022-08-03T13:40:43;97119.44;;;33.14
19196;BMP280;9730;48.926;11.376;2022-08-03T13:43:09;97119.03;;;32.57
19196;BMP280;9730;48.926;11.376;2022-08-03T13:45:36;97112.56;;;33.01
19196;BMP280;9730;48.926;11.376;2022-08-03T13:48:03;97121.63;;;32.32
19196;BMP280;9730;48.926;11.376;2022-08-03T13:50:29;97112.91;;;32.87
19196;BMP280;9730;48.926;11.376;2022-08-03T13:52:56;97118.94;;;33.23
19196;BMP280;9730;48.926;11.376;2022-08-03T13:55:24;97109.56;;;32.62
19196;BMP280;9730;48.926;11.376;2022-08-03T13:57:50;97108.59;;;32.99
19196;BMP280;9730;48.926;11.376;2022-08-03T14:00:18;97105.00;;;32.93
19196;BMP280;9730;48.926;11.376;2022-08-03T14:02:48;97100.09;;;33.03
19196;BMP280;9730;48.926;11.376;2022-08-03T14:05:14;97098.91;;;32.64
19196;BMP280;9730;48.926;11.376;2022-08-03T14:07:41;97092.16;;;33.10
19196;BMP280;9730;48.926;11.376;2022-08-03T14:10:08;97097.72;;;33.02
19196;BMP280;9730;48.926;11.376;2022-08-03T14:12:36;97094.69;;;32.63
19196;BMP280;9730;48.926;11.376;2022-08-03T14:15:03;97101.75;;;32.80
19196;BMP280;9730;48.926;11.376;2022-08-03T14:17:34;97103.13;;;32.65
19196;BMP280;9730;48.926;11.376;2022-08-03T14:20:00;97100.13;;;32.97
19196;BMP280;9730;48.926;11.376;2022-08-03T14:22:29;97090.78;;;32.72
19196;BMP280;9730;48.926;11.376;2022-08-03T14:24:56;97093.41;;;33.07